createdAt,value
2018-12-24T00:01:10.864Z,13.57
2018-12-24T00:03:39.648Z,14.90
2018-12-24T00:06:08.421Z,14.50
2018-12-24T00:08:37.276Z,14.37
2018-12-24T00:11:06.265Z,13.70
2018-12-24T00:13:35.197Z,13.97
2018-12-24T00:16:03.654Z,14.40
2018-12-24T00:18:32.173Z,14.30
2018-12-24T00:21:00.635Z,14.87
2018-12-24T00:23:29.761Z,13.33
2018-12-24T00:25:58.409Z,14.23
2018-12-24T00:28:27.351Z,13.87
2018-12-24T00:30:55.695Z,14.37
2018-12-24T00:33:24.035Z,13.17
2018-12-24T00:35:52.757Z,14.83
2018-12-24T00:38:21.419Z,15.17
2018-12-24T00:40:50.060Z,14.23
2018-12-24T00:43:19.256Z,14.73
2018-12-24T00:45:48.295Z,14.40
2018-12-24T00:48:17.327Z,12.80
2018-12-24T00:50:45.992Z,14.73
2018-12-24T00:53:14.819Z,17.43
2018-12-24T00:55:43.825Z,14.77
2018-12-24T00:58:12.496Z,14.23
2018-12-24T01:00:41.194Z,14.00
2018-12-24T01:03:10.322Z,14.30
2018-12-24T01:05:39.283Z,13.90
2018-12-24T01:08:07.819Z,14.50
2018-12-24T01:10:36.530Z,14.27
2018-12-24T01:13:05.300Z,14.00
2018-12-24T01:15:34.114Z,13.80
2018-12-24T01:18:02.466Z,14.77
2018-12-24T01:20:30.876Z,14.10
2018-12-24T01:22:59.206Z,14.73
2018-12-24T01:25:28.251Z,14.37
2018-12-24T01:27:57.276Z,14.83
2018-12-24T01:30:25.933Z,14.43
2018-12-24T01:32:54.774Z,14.30
2018-12-24T01:35:23.411Z,14.93
2018-12-24T01:37:52.605Z,14.27
2018-12-24T01:40:21.279Z,14.17
2018-12-24T01:42:50.092Z,14.43
2018-12-24T01:45:19.299Z,14.60
2018-12-24T01:47:47.958Z,13.13
2018-12-24T01:50:16.601Z,14.00
2018-12-24T01:52:45.606Z,14.13
2018-12-24T01:55:14.279Z,14.10
2018-12-24T01:57:43.095Z,13.73
2018-12-24T02:00:12.105Z,14.50
2018-12-24T02:02:41.138Z,14.53
2018-12-24T02:05:09.791Z,14.40
2018-12-24T02:07:38.139Z,14.87
2018-12-24T02:10:06.568Z,13.13
2018-12-24T02:12:42.045Z,14.47
2018-12-24T02:15:04.995Z,13.63
2018-12-24T02:17:33.551Z,13.67
2018-12-24T02:20:01.888Z,13.37
2018-12-24T02:22:30.238Z,14.70
2018-12-24T02:24:58.730Z,13.43
2018-12-24T02:27:27.081Z,13.17
2018-12-24T02:29:55.415Z,13.37
2018-12-24T02:32:23.758Z,13.97
2018-12-24T02:34:52.619Z,13.70
2018-12-24T02:37:21.274Z,13.13
2018-12-24T02:39:50.297Z,13.47
2018-12-24T02:42:18.963Z,13.63
2018-12-24T02:44:47.770Z,13.23
2018-12-24T02:47:16.422Z,13.30
2018-12-24T02:49:45.431Z,13.10
2018-12-24T02:52:13.752Z,13.77
2018-12-24T02:54:42.075Z,13.83
2018-12-24T02:57:10.747Z,14.73
2018-12-24T02:59:39.593Z,14.23
2018-12-24T03:02:07.940Z,14.17
2018-12-24T03:04:36.267Z,14.13
2018-12-24T03:07:04.713Z,14.23
2018-12-24T03:09:33.531Z,13.30
2018-12-24T03:12:02.219Z,14.07
2018-12-24T03:14:31.037Z,14.03
2018-12-24T03:16:59.382Z,13.13
2018-12-24T03:19:27.709Z,11.57
2018-12-24T03:21:56.064Z,6.33
2018-12-24T03:24:24.504Z,5.03
2018-12-24T03:26:52.843Z,9.40
2018-12-24T03:29:21.242Z,9.93
2018-12-24T03:31:49.584Z,11.13
2018-12-24T03:34:18.038Z,11.17
2018-12-24T03:36:46.827Z,11.93
2018-12-24T03:39:15.185Z,11.90
2018-12-24T03:41:43.884Z,12.83
2018-12-24T03:44:12.700Z,12.37
2018-12-24T03:46:41.044Z,11.17
2018-12-24T03:49:09.363Z,11.87
2018-12-24T03:51:37.688Z,12.30
2018-12-24T03:54:06.000Z,12.30
2018-12-24T03:56:34.329Z,11.43
2018-12-24T03:59:02.667Z,11.27
2018-12-24T04:01:31.695Z,11.37
2018-12-24T04:04:00.027Z,11.87
2018-12-24T04:06:28.454Z,10.93
2018-12-24T04:08:56.783Z,12.10
2018-12-24T04:11:25.156Z,11.80
2018-12-24T04:13:53.498Z,10.97
2018-12-24T04:16:21.868Z,11.10
2018-12-24T04:18:50.197Z,10.87
2018-12-24T04:21:18.507Z,10.57
2018-12-24T04:23:46.849Z,11.20
2018-12-24T04:26:15.203Z,11.70
2018-12-24T04:28:43.537Z,11.77
2018-12-24T04:31:11.865Z,12.83
2018-12-24T04:33:40.259Z,12.97
2018-12-24T04:36:08.612Z,12.57
2018-12-24T04:38:37.099Z,12.77
2018-12-24T04:41:05.847Z,12.50
2018-12-24T04:43:34.679Z,13.10
2018-12-24T04:46:03.018Z,12.93
2018-12-24T04:48:31.626Z,13.13
2018-12-24T04:51:00.399Z,12.67
2018-12-24T04:53:29.246Z,12.57
2018-12-24T04:55:57.746Z,12.47
2018-12-24T04:58:26.498Z,12.30
2018-12-24T05:00:55.370Z,12.40
2018-12-24T05:03:24.179Z,12.20
2018-12-24T05:05:53.046Z,12.27
2018-12-24T05:08:21.795Z,12.13
2018-12-24T05:10:50.463Z,11.87
2018-12-24T05:13:19.090Z,12.47
2018-12-24T05:15:47.915Z,12.80
2018-12-24T05:18:17.126Z,12.87
2018-12-24T05:20:45.847Z,12.47
2018-12-24T05:23:14.201Z,12.07
2018-12-24T05:25:42.552Z,12.13
2018-12-24T05:28:10.888Z,12.37
2018-12-24T05:30:39.231Z,11.43
2018-12-24T05:33:07.559Z,12.60
2018-12-24T05:35:35.893Z,11.97
2018-12-24T05:38:04.307Z,11.43
2018-12-24T05:40:32.649Z,12.07
2018-12-24T05:43:00.992Z,12.40
2018-12-24T05:45:29.360Z,13.17
2018-12-24T05:47:57.694Z,12.03
2018-12-24T05:50:26.043Z,11.90
2018-12-24T05:52:54.394Z,13.07
2018-12-24T05:55:23.135Z,12.63
2018-12-24T05:57:51.793Z,12.20
2018-12-24T06:00:20.131Z,12.90
2018-12-24T06:02:48.459Z,12.67
2018-12-24T06:05:16.805Z,13.67
2018-12-24T06:07:45.347Z,13.10
2018-12-24T06:10:13.756Z,11.30
2018-12-24T06:12:42.135Z,11.93
2018-12-24T06:15:10.476Z,12.20
2018-12-24T06:17:38.824Z,12.00
2018-12-24T06:20:07.166Z,11.80
2018-12-24T06:22:35.506Z,12.13
2018-12-24T06:25:03.865Z,11.67
2018-12-24T06:27:32.179Z,13.03
2018-12-24T06:30:00.551Z,11.37
2018-12-24T06:32:28.895Z,11.33
2018-12-24T06:34:57.223Z,11.50
2018-12-24T06:37:25.572Z,11.37
2018-12-24T06:39:53.916Z,11.63
2018-12-24T06:42:22.302Z,9.40
2018-12-24T06:44:50.647Z,9.60
2018-12-24T06:47:18.980Z,9.47
2018-12-24T06:49:47.327Z,8.70
2018-12-24T06:52:15.661Z,4.07
2018-12-24T06:54:43.989Z,3.53
2018-12-24T06:57:12.318Z,4.17
2018-12-24T06:59:40.648Z,2.60
2018-12-24T07:02:08.972Z,1.70
2018-12-24T07:04:37.304Z,1.20
2018-12-24T07:07:05.747Z,1.50
2018-12-24T07:09:34.090Z,1.27
2018-12-24T07:12:02.403Z,1.30
2018-12-24T07:14:30.798Z,1.20
2018-12-24T07:16:59.130Z,1.93
2018-12-24T07:19:27.500Z,15.97
2018-12-24T07:21:55.820Z,1.80
2018-12-24T07:24:24.321Z,1.10
2018-12-24T07:26:53.055Z,1.13
2018-12-24T07:29:22.091Z,1.27
2018-12-24T07:31:50.787Z,1.27
2018-12-24T07:34:19.581Z,1.37
2018-12-24T07:36:47.884Z,1.10
2018-12-24T07:39:16.246Z,1.10
2018-12-24T07:41:44.570Z,1.33
2018-12-24T07:44:12.893Z,6.67
2018-12-24T07:46:41.364Z,1.97
2018-12-24T07:49:09.674Z,1.40
2018-12-24T07:51:38.011Z,1.10
2018-12-24T07:54:06.350Z,1.20
2018-12-24T07:56:34.830Z,1.53
2018-12-24T07:59:03.762Z,1.17
2018-12-24T08:01:32.442Z,2.07
2018-12-24T08:04:01.432Z,1.20
2018-12-24T08:06:30.123Z,1.10
2018-12-24T08:08:58.448Z,1.00
2018-12-24T08:11:26.785Z,1.00
2018-12-24T08:13:55.099Z,1.00
2018-12-24T08:16:23.430Z,1.00
2018-12-24T08:18:51.817Z,1.17
2018-12-24T08:21:20.147Z,0.87
2018-12-24T08:23:48.478Z,1.20
2018-12-24T08:26:16.815Z,1.50
2018-12-24T08:28:45.156Z,0.90
2018-12-24T08:31:13.498Z,1.07
2018-12-24T08:33:42.312Z,1.43
2018-12-24T08:36:10.970Z,1.77
2018-12-24T08:38:39.612Z,1.10
2018-12-24T08:41:08.586Z,1.13
2018-12-24T08:43:37.158Z,1.70
2018-12-24T08:46:05.934Z,1.30
2018-12-24T08:48:34.739Z,1.20
2018-12-24T08:51:03.494Z,1.03
2018-12-24T08:53:31.830Z,1.00
2018-12-24T08:56:00.267Z,1.70
2018-12-24T08:58:28.645Z,1.30
2018-12-24T09:00:56.965Z,1.47
2018-12-24T09:03:25.787Z,1.10
2018-12-24T09:05:54.784Z,1.50
2018-12-24T09:08:24.019Z,1.17
2018-12-24T09:10:52.671Z,1.43
2018-12-24T09:13:22.263Z,0.90
2018-12-24T09:15:51.293Z,1.03
2018-12-24T09:18:20.126Z,0.97
2018-12-24T09:20:52.654Z,1.33
2018-12-24T09:23:18.951Z,0.80
2018-12-24T09:25:47.271Z,1.00
2018-12-24T09:28:15.601Z,1.00
2018-12-24T09:30:47.313Z,0.73
2018-12-24T09:33:16.086Z,1.63
2018-12-24T09:35:44.490Z,1.10
2018-12-24T09:38:12.828Z,1.00
2018-12-24T09:40:41.170Z,1.10
2018-12-24T09:43:09.625Z,0.83
2018-12-24T09:45:37.983Z,0.90
2018-12-24T09:48:06.311Z,1.00
2018-12-24T09:50:34.683Z,1.30
2018-12-24T09:53:03.057Z,1.87
2018-12-24T09:55:31.440Z,1.50
2018-12-24T09:57:59.888Z,0.97
2018-12-24T10:00:28.248Z,0.90
2018-12-24T10:03:15.551Z,0.87
2018-12-24T10:05:43.968Z,1.10
2018-12-24T10:08:14.356Z,1.10
2018-12-24T10:10:42.667Z,0.97
2018-12-24T10:13:10.979Z,1.20
2018-12-24T10:15:39.305Z,1.23
2018-12-24T10:18:07.802Z,1.27
2018-12-24T10:20:36.462Z,0.90
2018-12-24T10:23:04.904Z,1.37
2018-12-24T10:25:33.226Z,1.30
2018-12-24T10:28:01.646Z,1.70
2018-12-24T10:30:30.040Z,1.10
2018-12-24T10:32:58.407Z,1.00
2018-12-24T10:35:27.501Z,1.07
2018-12-24T10:37:55.834Z,1.73
2018-12-24T10:40:24.328Z,1.30
2018-12-24T10:42:52.658Z,1.10
2018-12-24T10:45:21.131Z,1.23
2018-12-24T10:47:49.494Z,1.43
2018-12-24T10:50:17.832Z,0.90
2018-12-24T10:52:46.151Z,0.90
2018-12-24T10:55:14.595Z,1.27
2018-12-24T10:57:42.955Z,1.20
2018-12-24T11:00:11.888Z,1.20
2018-12-24T11:02:40.238Z,1.10
2018-12-24T11:05:08.558Z,1.17
2018-12-24T11:07:36.873Z,0.93
2018-12-24T11:10:06.698Z,1.00
2018-12-24T11:12:35.116Z,1.00
2018-12-24T11:15:03.516Z,1.43
2018-12-24T11:17:31.834Z,0.90
2018-12-24T11:20:00.326Z,1.10
2018-12-24T11:22:28.879Z,1.00
2018-12-24T11:24:57.222Z,1.10
2018-12-24T11:27:25.558Z,1.10
2018-12-24T11:29:53.895Z,0.90
2018-12-24T11:32:22.466Z,0.63
2018-12-24T11:34:50.896Z,0.50
2018-12-24T11:37:19.247Z,0.60
2018-12-24T11:39:47.649Z,0.63
2018-12-24T11:42:15.953Z,0.50
2018-12-24T11:44:44.314Z,0.70
2018-12-24T11:47:12.630Z,0.60
2018-12-24T11:49:40.904Z,0.40
2018-12-24T11:52:09.203Z,0.50
2018-12-24T11:54:37.523Z,0.70
2018-12-24T11:57:05.877Z,0.40
2018-12-24T11:59:34.231Z,0.77
2018-12-24T12:02:09.775Z,0.67
2018-12-24T12:04:32.717Z,0.77
2018-12-24T12:07:01.571Z,0.80
2018-12-24T12:09:30.220Z,0.90
2018-12-24T12:11:58.545Z,0.60
2018-12-24T12:14:26.908Z,0.63
2018-12-24T12:16:55.237Z,0.50
2018-12-24T12:19:23.547Z,0.50
2018-12-24T12:21:52.002Z,0.40
2018-12-24T12:24:20.339Z,0.50
2018-12-24T12:26:48.713Z,0.50
2018-12-24T12:29:17.067Z,0.70
2018-12-24T12:31:45.444Z,0.70
2018-12-24T12:34:13.779Z,0.67
2018-12-24T12:36:42.223Z,0.60
2018-12-24T12:39:10.549Z,1.00
2018-12-24T12:41:38.911Z,1.03
2018-12-24T12:44:07.256Z,0.83
2018-12-24T12:46:35.589Z,0.53
2018-12-24T12:49:03.934Z,0.60
2018-12-24T12:51:32.264Z,0.70
2018-12-24T12:54:00.586Z,0.87
2018-12-24T12:56:28.922Z,0.77
2018-12-24T12:58:57.258Z,0.70
2018-12-24T13:01:25.624Z,0.60
2018-12-24T13:03:54.054Z,0.70
2018-12-24T13:06:22.375Z,0.70
2018-12-24T13:08:50.767Z,0.73
2018-12-24T13:11:19.095Z,0.77
2018-12-24T13:13:47.432Z,0.70
2018-12-24T13:16:15.739Z,0.50
2018-12-24T13:18:44.074Z,1.00
2018-12-24T13:21:12.394Z,0.80
2018-12-24T13:23:40.772Z,0.70
2018-12-24T13:26:09.098Z,0.77
2018-12-24T13:28:37.430Z,0.80
2018-12-24T13:31:05.780Z,0.67
2018-12-24T13:33:34.115Z,0.60
2018-12-24T13:36:02.481Z,0.97
2018-12-24T13:38:30.809Z,0.70
2018-12-24T13:40:59.199Z,0.70
2018-12-24T13:43:27.591Z,0.60
2018-12-24T13:45:56.584Z,0.90
2018-12-24T13:48:24.955Z,0.97
2018-12-24T13:50:53.292Z,0.87
2018-12-24T13:53:21.618Z,0.97
2018-12-24T13:55:50.081Z,0.70
2018-12-24T13:58:18.577Z,0.63
2018-12-24T14:00:46.986Z,0.57
2018-12-24T14:03:15.354Z,0.80
2018-12-24T14:05:43.654Z,0.60
2018-12-24T14:08:11.982Z,0.73
2018-12-24T14:10:40.357Z,0.30
2018-12-24T14:13:08.971Z,0.60
2018-12-24T14:15:37.395Z,0.70
2018-12-24T14:18:05.749Z,0.60
2018-12-24T14:20:35.231Z,0.50
2018-12-24T14:23:04.357Z,0.50
2018-12-24T14:25:33.819Z,0.57
2018-12-24T14:28:03.015Z,0.83
2018-12-24T14:30:31.366Z,0.43
2018-12-24T14:32:59.705Z,0.80
2018-12-24T14:35:28.108Z,0.90
2018-12-24T14:37:56.447Z,1.00
2018-12-24T14:40:24.869Z,1.00
2018-12-24T14:42:53.207Z,0.60
2018-12-24T14:45:21.950Z,0.90
2018-12-24T14:47:50.692Z,1.10
2018-12-24T14:50:19.611Z,0.83
2018-12-24T14:52:47.930Z,0.83
2018-12-24T14:55:16.271Z,0.77
2018-12-24T14:57:44.824Z,0.80
2018-12-24T15:00:13.278Z,0.50
2018-12-24T15:02:41.619Z,0.57
2018-12-24T15:05:09.962Z,0.60
2018-12-24T15:07:38.404Z,1.03
2018-12-24T15:10:06.950Z,0.47
2018-12-24T15:12:35.782Z,0.80
2018-12-24T15:15:04.200Z,0.67
2018-12-24T15:17:32.691Z,0.70
2018-12-24T15:20:01.048Z,0.70
2018-12-24T15:22:29.476Z,0.70
2018-12-24T15:24:57.815Z,0.80
2018-12-24T15:27:26.159Z,0.63
2018-12-24T15:29:54.515Z,0.70
2018-12-24T15:32:22.866Z,0.83
2018-12-24T15:34:51.190Z,0.67
2018-12-24T15:37:19.522Z,0.90
2018-12-24T15:39:47.854Z,0.90
2018-12-24T15:42:16.191Z,0.87
2018-12-24T15:44:44.526Z,0.93
2018-12-24T15:47:12.972Z,0.80
2018-12-24T15:49:41.360Z,1.20
2018-12-24T15:52:09.696Z,1.00
2018-12-24T15:54:38.046Z,1.23
2018-12-24T15:57:06.385Z,1.10
2018-12-24T15:59:34.731Z,1.00
2018-12-24T16:02:03.083Z,0.70
2018-12-24T16:04:31.422Z,0.80
2018-12-24T16:06:59.863Z,1.00
2018-12-24T16:09:28.246Z,0.73
2018-12-24T16:11:56.579Z,0.77
2018-12-24T16:14:24.927Z,1.00
2018-12-24T16:16:53.278Z,0.83
2018-12-24T16:19:21.657Z,0.63
2018-12-24T16:21:50.127Z,1.50
2018-12-24T16:24:18.463Z,0.90
2018-12-24T16:26:46.799Z,1.20
2018-12-24T16:29:15.136Z,1.10
2018-12-24T16:31:43.483Z,0.70
2018-12-24T16:34:12.831Z,0.63
2018-12-24T16:36:41.163Z,1.10
2018-12-24T16:39:09.498Z,1.00
2018-12-24T16:41:37.842Z,0.90
2018-12-24T16:44:06.189Z,1.03
2018-12-24T16:46:34.523Z,0.93
2018-12-24T16:49:02.896Z,1.20
2018-12-24T16:51:31.226Z,1.43
2018-12-24T16:53:59.619Z,1.10
2018-12-24T16:56:27.975Z,0.80
2018-12-24T16:58:56.295Z,1.27
2018-12-24T17:01:24.616Z,0.80
2018-12-24T17:03:53.003Z,0.83
2018-12-24T17:06:21.305Z,1.33
2018-12-24T17:08:49.643Z,1.13
2018-12-24T17:11:18.299Z,1.00
2018-12-24T17:13:47.593Z,2.00
2018-12-24T17:16:15.948Z,1.40
2018-12-24T17:18:44.258Z,1.10
2018-12-24T17:21:12.759Z,1.40
2018-12-24T17:23:41.105Z,1.20
2018-12-24T17:26:09.499Z,1.33
2018-12-24T17:28:37.831Z,1.37
2018-12-24T17:31:06.177Z,1.53
2018-12-24T17:33:35.007Z,2.10
2018-12-24T17:36:03.313Z,1.50
2018-12-24T17:38:31.653Z,1.30
2018-12-24T17:41:00.106Z,1.30
2018-12-24T17:43:28.490Z,1.50
2018-12-24T17:45:56.806Z,1.27
2018-12-24T17:48:25.166Z,1.43
2018-12-24T17:50:53.480Z,1.50
2018-12-24T17:53:21.798Z,1.60
2018-12-24T17:55:50.139Z,1.43
2018-12-24T17:58:18.535Z,1.47
2018-12-24T18:00:46.854Z,1.50
2018-12-24T18:03:15.542Z,1.60
2018-12-24T18:05:44.578Z,2.10
2018-12-24T18:08:12.894Z,2.07
2018-12-24T18:10:41.218Z,1.80
2018-12-24T18:13:09.531Z,1.97
2018-12-24T18:15:37.868Z,2.10
2018-12-24T18:18:06.187Z,2.17
2018-12-24T18:20:34.616Z,2.37
2018-12-24T18:23:02.971Z,2.30
2018-12-24T18:25:32.562Z,2.70
2018-12-24T18:28:01.092Z,2.30
2018-12-24T18:30:29.471Z,2.23
2018-12-24T18:32:57.782Z,2.30
2018-12-24T18:35:26.126Z,2.40
2018-12-24T18:37:54.443Z,2.30
2018-12-24T18:40:22.783Z,2.43
2018-12-24T18:42:51.127Z,2.43
2018-12-24T18:45:19.465Z,2.80
2018-12-24T18:47:48.151Z,1.93
2018-12-24T18:50:16.503Z,2.73
2018-12-24T18:52:44.906Z,2.53
2018-12-24T18:55:13.455Z,2.57
2018-12-24T18:57:41.786Z,2.57
2018-12-24T19:00:10.841Z,2.50
2018-12-24T19:02:39.221Z,2.63
2018-12-24T19:05:08.216Z,2.60
2018-12-24T19:07:36.570Z,2.63
2018-12-24T19:10:05.590Z,2.53
2018-12-24T19:12:34.061Z,2.67
2018-12-24T19:15:02.705Z,2.70
2018-12-24T19:17:32.073Z,2.57
2018-12-24T19:20:00.727Z,2.87
2018-12-24T19:22:29.049Z,2.77
2018-12-24T19:24:57.363Z,3.10
2018-12-24T19:27:25.726Z,3.17
2018-12-24T19:29:54.061Z,3.27
2018-12-24T19:32:22.397Z,4.07
2018-12-24T19:34:51.421Z,2.77
2018-12-24T19:37:19.795Z,3.03
2018-12-24T19:39:48.110Z,2.70
2018-12-24T19:42:16.612Z,3.07
2018-12-24T19:44:44.918Z,2.73
2018-12-24T19:47:13.271Z,2.50
2018-12-24T19:49:41.599Z,4.13
2018-12-24T19:52:09.942Z,2.90
2018-12-24T19:54:38.277Z,2.67
2018-12-24T19:57:06.604Z,2.80
2018-12-24T19:59:34.961Z,2.77
2018-12-24T20:02:03.297Z,2.73
2018-12-24T20:04:31.616Z,2.67
2018-12-24T20:06:59.998Z,2.87
2018-12-24T20:09:28.346Z,2.53
2018-12-24T20:11:56.796Z,2.30
2018-12-24T20:14:25.116Z,2.47
2018-12-24T20:16:53.537Z,2.43
2018-12-24T20:19:21.856Z,2.40
2018-12-24T20:21:50.198Z,3.67
2018-12-24T20:24:18.546Z,2.60
2018-12-24T20:26:46.893Z,4.23
2018-12-24T20:29:15.243Z,2.27
2018-12-24T20:31:43.591Z,2.53
2018-12-24T20:34:11.922Z,2.20
2018-12-24T20:36:40.277Z,2.40
2018-12-24T20:39:10.139Z,2.30
2018-12-24T20:41:38.794Z,2.60
2018-12-24T20:44:07.097Z,2.50
2018-12-24T20:46:35.713Z,2.37
2018-12-24T20:49:04.579Z,2.57
2018-12-24T20:51:32.887Z,2.20
2018-12-24T20:54:01.260Z,2.60
2018-12-24T20:56:29.585Z,2.27
2018-12-24T20:58:58.232Z,2.20
2018-12-24T21:01:26.716Z,2.77
2018-12-24T21:03:55.038Z,2.30
2018-12-24T21:06:23.392Z,2.40
2018-12-24T21:08:51.727Z,2.63
2018-12-24T21:11:20.702Z,2.23
2018-12-24T21:13:49.558Z,2.47
2018-12-24T21:16:18.109Z,2.30
2018-12-24T21:18:46.453Z,1.93
2018-12-24T21:21:15.498Z,2.50
2018-12-24T21:23:43.958Z,2.13
2018-12-24T21:26:12.282Z,2.43
2018-12-24T21:28:40.706Z,2.23
2018-12-24T21:31:09.059Z,2.70
2018-12-24T21:33:37.370Z,2.30
2018-12-24T21:36:05.705Z,2.10
2018-12-24T21:38:34.075Z,2.43
2018-12-24T21:41:02.378Z,2.17
2018-12-24T21:43:31.207Z,2.37
2018-12-24T21:46:00.048Z,2.47
2018-12-24T21:48:28.791Z,2.20
2018-12-24T21:50:57.149Z,2.40
2018-12-24T21:53:25.470Z,2.10
2018-12-24T21:55:53.846Z,2.40
2018-12-24T21:58:22.168Z,2.07
2018-12-24T22:00:50.495Z,2.27
2018-12-24T22:03:18.842Z,2.20
2018-12-24T22:05:47.152Z,2.30
2018-12-24T22:08:15.482Z,2.30
2018-12-24T22:10:43.832Z,2.40
2018-12-24T22:13:12.181Z,2.37
2018-12-24T22:15:40.561Z,2.57
2018-12-24T22:18:08.899Z,2.50
2018-12-24T22:20:37.218Z,2.00
2018-12-24T22:23:05.558Z,2.10
2018-12-24T22:25:33.911Z,1.97
2018-12-24T22:28:02.215Z,2.33
2018-12-24T22:30:30.555Z,2.20
2018-12-24T22:32:58.926Z,2.30
2018-12-24T22:35:27.270Z,2.30
2018-12-24T22:37:55.613Z,2.10
2018-12-24T22:40:24.046Z,2.10
2018-12-24T22:42:52.425Z,2.40
2018-12-24T22:45:20.749Z,2.57
2018-12-24T22:47:49.141Z,2.50
2018-12-24T22:50:17.501Z,2.60
2018-12-24T22:52:45.838Z,2.23
2018-12-24T22:55:14.179Z,2.63
2018-12-24T22:57:42.533Z,3.27
2018-12-24T23:00:13.944Z,2.63
2018-12-24T23:02:42.270Z,2.70
2018-12-24T23:05:10.722Z,2.37
2018-12-24T23:07:39.071Z,3.13
2018-12-24T23:10:07.521Z,2.43
2018-12-24T23:12:35.880Z,2.50
2018-12-24T23:15:04.401Z,2.60
2018-12-24T23:17:32.773Z,2.53
2018-12-24T23:20:01.219Z,2.70
2018-12-24T23:22:29.586Z,1.80
2018-12-24T23:24:57.908Z,2.50
2018-12-24T23:27:26.250Z,2.40
2018-12-24T23:29:54.598Z,2.87
2018-12-24T23:32:22.923Z,2.60
2018-12-24T23:34:51.252Z,2.33
2018-12-24T23:37:19.597Z,2.37
2018-12-24T23:39:47.925Z,2.53
2018-12-24T23:42:16.279Z,2.60
2018-12-24T23:44:44.650Z,2.33
2018-12-24T23:47:13.031Z,2.40
2018-12-24T23:49:41.395Z,2.40
2018-12-24T23:52:09.818Z,2.13
2018-12-24T23:54:38.179Z,2.27
2018-12-24T23:57:06.571Z,2.60
2018-12-24T23:59:34.926Z,2.20
